Time;durP1;ratioP1;P1;durP2;ratioP2;P2;SDS_P1;SDS_P2;PMS_P1;PMS_P2;Temp;Humidity;BMP_temperature;BMP_pressure;BME280_temperature;BME280_humidity;BME280_pressure;Samples;Min_cycle;Max_cycle;Signal;HPM_P1;HPM_P2
2022/03/09 00:01:54;;;;;;;;;;;21.20;99.90;;;;;;4995709;28;19953;-75
2022/03/09 00:04:20;;;;;;;;;;;21.20;99.90;;;;;;4995941;28;20404;-74
2022/03/09 00:06:47;;;;;;;;;;;21.20;99.90;;;;;;4995573;28;19951;-76
2022/03/09 00:09:14;;;;;;;;;;;21.30;99.90;;;;;;4995511;28;19918;-74
2022/03/09 00:11:41;;;;;;;;;;;21.40;99.90;;;;;;4994242;28;19918;-74
2022/03/09 00:14:08;;;;;;;;;;;21.50;99.90;;;;;;4995515;28;20379;-74
2022/03/09 00:16:34;;;;;;;;;;;21.60;99.90;;;;;;4994473;28;19917;-73
2022/03/09 00:19:01;;;;;;;;;;;21.60;99.90;;;;;;4995805;28;19946;-75
2022/03/09 00:21:28;;;;;;;;;;;21.70;99.90;;;;;;4995560;28;19910;-74
2022/03/09 00:23:54;;;;;;;;;;;21.80;99.90;;;;;;4995109;28;19909;-73
2022/03/09 00:26:21;;;;;;;;;;;21.90;99.90;;;;;;4995260;28;19961;-73
2022/03/09 00:28:47;;;;;;;;;;;21.80;99.90;;;;;;4995110;28;19972;-74
2022/03/09 00:31:14;;;;;;;;;;;21.80;99.90;;;;;;4995238;28;20356;-74
2022/03/09 00:33:41;;;;;;;;;;;21.70;99.90;;;;;;4995115;28;19914;-74
2022/03/09 00:36:07;;;;;;;;;;;21.60;99.90;;;;;;4995384;28;19989;-74
2022/03/09 00:38:34;;;;;;;;;;;21.60;99.90;;;;;;4995513;28;20001;-73
2022/03/09 00:41:04;;;;;;;;;;;21.60;99.90;;;;;;4994822;28;19914;-74
2022/03/09 00:43:30;;;;;;;;;;;21.50;99.90;;;;;;4994690;28;19922;-73
2022/03/09 00:45:57;;;;;;;;;;;21.50;99.90;;;;;;4994839;28;19937;-75
2022/03/09 00:48:24;;;;;;;;;;;21.50;99.90;;;;;;4994874;28;19933;-74
2022/03/09 00:50:50;;;;;;;;;;;21.50;99.90;;;;;;4994519;28;20176;-75
2022/03/09 00:53:17;;;;;;;;;;;21.40;99.90;;;;;;4994827;28;20036;-73
2022/03/09 00:55:43;;;;;;;;;;;21.40;99.90;;;;;;4994493;28;19917;-73
2022/03/09 00:58:10;;;;;;;;;;;21.50;99.90;;;;;;4994611;28;19910;-76
2022/03/09 01:00:37;;;;;;;;;;;21.40;99.90;;;;;;4994695;28;19917;-75
2022/03/09 01:03:03;;;;;;;;;;;21.50;99.90;;;;;;4994597;28;19921;-74
2022/03/09 01:05:30;;;;;;;;;;;21.50;99.90;;;;;;4994683;28;20324;-74
2022/03/09 01:07:57;;;;;;;;;;;21.50;99.90;;;;;;4994238;28;20667;-74
2022/03/09 01:10:23;;;;;;;;;;;21.60;99.90;;;;;;4994467;28;19918;-73
2022/03/09 01:12:50;;;;;;;;;;;21.60;99.90;;;;;;4994408;28;19910;-77
2022/03/09 01:15:17;;;;;;;;;;;21.60;99.90;;;;;;4976961;28;19910;-74
2022/03/09 01:17:44;;;;;;;;;;;21.70;99.90;;;;;;4994207;28;19917;-75
2022/03/09 01:20:11;;;;;;;;;;;21.80;99.90;;;;;;4994416;28;20272;-74
2022/03/09 01:22:38;;;;;;;;;;;22.00;99.90;;;;;;4993965;28;19910;-73
2022/03/09 01:25:04;;;;;;;;;;;22.20;99.90;;;;;;4994183;28;19910;-76
2022/03/09 01:27:31;;;;;;;;;;;22.40;99.90;;;;;;4994130;28;19914;-74
2022/03/09 01:29:58;;;;;;;;;;;22.30;99.90;;;;;;4993872;28;20368;-73
2022/03/09 01:32:24;;;;;;;;;;;22.30;99.90;;;;;;4994059;28;19917;-73
2022/03/09 01:34:51;;;;;;;;;;;22.30;99.90;;;;;;4994178;28;19929;-74
2022/03/09 01:37:18;;;;;;;;;;;22.30;99.90;;;;;;4994133;28;19953;-74
2022/03/09 01:39:44;;;;;;;;;;;22.30;99.90;;;;;;4993840;28;20357;-75
2022/03/09 01:42:11;;;;;;;;;;;22.40;99.90;;;;;;4993749;28;19917;-74
2022/03/09 01:44:38;;;;;;;;;;;22.40;99.90;;;;;;4993928;28;19917;-74
2022/03/09 01:47:05;;;;;;;;;;;22.30;99.90;;;;;;4993847;28;19945;-74
2022/03/09 01:49:32;;;;;;;;;;;22.20;99.90;;;;;;4993574;28;20280;-74
2022/03/09 01:52:00;;;;;;;;;;;22.10;99.90;;;;;;4993430;28;19918;-74
2022/03/09 01:54:27;;;;;;;;;;;22.10;99.90;;;;;;4993639;28;19910;-74
2022/03/09 01:56:54;;;;;;;;;;;22.00;99.90;;;;;;4993537;28;19910;-74
2022/03/09 01:59:21;;;;;;;;;;;21.90;99.90;;;;;;4993760;28;19920;-75
2022/03/09 02:01:48;;;;;;;;;;;21.70;99.90;;;;;;4993547;28;19910;-75
2022/03/09 02:04:14;;;;;;;;;;;21.80;99.90;;;;;;4993783;28;20432;-77
2022/03/09 02:06:41;;;;;;;;;;;21.80;99.90;;;;;;4993573;28;19946;-75
2022/03/09 02:11:53;;;;;;;;;;;22.00;99.90;;;;;;4993726;28;19956;-76
2022/03/09 02:14:32;;;;;;;;;;;22.10;99.90;;;;;;4993701;28;19956;-75
2022/03/09 02:17:00;;;;;;;;;;;22.10;99.90;;;;;;4993447;28;19910;-75
2022/03/09 02:19:27;;;;;;;;;;;22.00;99.90;;;;;;4993413;28;19957;-75
2022/03/09 02:22:20;;;;;;;;;;;21.90;99.90;;;;;;4993426;28;19909;-75
2022/03/09 02:24:47;;;;;;;;;;;21.90;99.90;;;;;;4956436;28;19910;-75
2022/03/09 02:27:14;;;;;;;;;;;21.90;99.90;;;;;;4993197;28;19910;-75
2022/03/09 02:29:41;;;;;;;;;;;21.90;99.90;;;;;;4993082;28;19969;-75
2022/03/09 02:32:08;;;;;;;;;;;22.10;99.90;;;;;;4993302;28;20004;-75
2022/03/09 02:34:34;;;;;;;;;;;22.10;99.90;;;;;;4992467;28;19990;-75
2022/03/09 02:37:01;;;;;;;;;;;22.20;99.90;;;;;;4993157;28;20328;-76
2022/03/09 02:39:28;;;;;;;;;;;22.20;99.90;;;;;;4993392;28;19910;-75
2022/03/09 02:41:55;;;;;;;;;;;22.30;99.90;;;;;;4992760;28;19914;-74
2022/03/09 02:44:21;;;;;;;;;;;22.40;99.90;;;;;;4993079;28;19930;-75
2022/03/09 02:46:48;;;;;;;;;;;22.30;99.90;;;;;;4993388;28;20322;-74
2022/03/09 02:49:15;;;;;;;;;;;22.40;99.90;;;;;;4992937;28;20380;-75
2022/03/09 02:51:41;;;;;;;;;;;22.30;99.90;;;;;;4992850;28;19917;-75
2022/03/09 02:54:09;;;;;;;;;;;22.30;99.90;;;;;;4992924;28;20036;-75
2022/03/09 02:56:36;;;;;;;;;;;22.40;99.90;;;;;;4992949;28;19910;-75
2022/03/09 02:59:02;;;;;;;;;;;22.40;99.90;;;;;;4993253;28;19916;-75
2022/03/09 03:01:29;;;;;;;;;;;22.50;99.90;;;;;;4993098;28;19980;-73
2022/03/09 03:03:56;;;;;;;;;;;22.60;99.90;;;;;;4992663;28;20324;-74
2022/03/09 03:06:23;;;;;;;;;;;22.70;99.90;;;;;;4992863;28;19914;-74
2022/03/09 03:08:50;;;;;;;;;;;22.80;99.90;;;;;;4992922;28;19910;-74
2022/03/09 03:11:17;;;;;;;;;;;22.80;99.90;;;;;;4992641;28;20020;-74
2022/03/09 03:13:44;;;;;;;;;;;22.80;99.90;;;;;;4992420;28;19910;-75
2022/03/09 03:16:11;;;;;;;;;;;22.70;99.90;;;;;;4992755;28;19948;-74
2022/03/09 03:18:38;;;;;;;;;;;22.70;99.90;;;;;;4992815;28;19910;-74
2022/03/09 03:21:05;;;;;;;;;;;22.80;99.90;;;;;;4992989;28;19910;-74
2022/03/09 03:23:32;;;;;;;;;;;22.80;99.90;;;;;;4992763;28;20403;-74
2022/03/09 03:25:59;;;;;;;;;;;22.90;99.90;;;;;;4992634;28;19917;-74
2022/03/09 03:28:26;;;;;;;;;;;22.90;99.90;;;;;;4992717;28;20371;-74
2022/03/09 03:30:52;;;;;;;;;;;22.90;99.90;;;;;;4992671;28;19925;-74
2022/03/09 03:33:20;;;;;;;;;;;22.90;99.90;;;;;;4992875;28;19910;-74
2022/03/09 03:35:47;;;;;;;;;;;23.00;99.90;;;;;;4992362;28;19909;-74
2022/03/09 03:38:14;;;;;;;;;;;23.00;99.90;;;;;;4992529;28;19910;-74
2022/03/09 03:40:41;;;;;;;;;;;23.10;99.90;;;;;;4992436;28;19914;-74
2022/03/09 03:43:08;;;;;;;;;;;23.10;99.90;;;;;;4975182;28;19922;-74
2022/03/09 03:45:34;;;;;;;;;;;23.00;99.90;;;;;;4992884;28;20389;-74
2022/03/09 03:48:01;;;;;;;;;;;22.90;99.90;;;;;;4995946;28;19980;-74
2022/03/09 03:50:27;;;;;;;;;;;22.80;99.90;;;;;;4995976;28;19926;-74
2022/03/09 03:52:54;;;;;;;;;;;22.80;99.90;;;;;;4995878;28;19917;-74
2022/03/09 03:55:21;;;;;;;;;;;22.80;99.90;;;;;;4995884;28;20284;-75
2022/03/09 03:57:47;;;;;;;;;;;22.70;99.90;;;;;;4995653;28;19909;-75
2022/03/09 04:00:14;;;;;;;;;;;22.50;99.90;;;;;;4995756;28;19909;-74
2022/03/09 04:02:41;;;;;;;;;;;22.50;99.90;;;;;;4995868;28;20380;-73
2022/03/09 04:05:08;;;;;;;;;;;22.60;99.90;;;;;;4996291;28;19910;-73
2022/03/09 04:07:35;;;;;;;;;;;22.70;99.90;;;;;;4995579;28;20363;-73
2022/03/09 04:10:02;;;;;;;;;;;22.80;99.90;;;;;;4995376;28;19922;-73
2022/03/09 04:12:29;;;;;;;;;;;23.00;99.90;;;;;;4995329;28;19945;-74
2022/03/09 04:14:56;;;;;;;;;;;22.90;99.90;;;;;;4995735;28;20000;-73
2022/03/09 04:17:22;;;;;;;;;;;22.90;99.90;;;;;;4995609;28;20387;-75
2022/03/09 04:19:49;;;;;;;;;;;22.90;99.90;;;;;;4995117;28;19936;-73
2022/03/09 04:22:16;;;;;;;;;;;22.90;99.90;;;;;;4994373;28;20267;-74
2022/03/09 04:24:42;;;;;;;;;;;23.00;99.90;;;;;;4995336;28;19914;-74
2022/03/09 04:27:09;;;;;;;;;;;22.90;99.90;;;;;;4995117;28;20003;-73
2022/03/09 04:29:36;;;;;;;;;;;22.90;99.90;;;;;;4995161;28;19949;-73
2022/03/09 04:32:03;;;;;;;;;;;22.80;99.90;;;;;;4995171;28;20004;-74
2022/03/09 04:34:30;;;;;;;;;;;22.80;99.90;;;;;;4995128;28;19910;-74
2022/03/09 04:36:56;;;;;;;;;;;22.70;99.90;;;;;;4995227;28;20339;-74
2022/03/09 04:39:23;;;;;;;;;;;22.70;99.90;;;;;;4993804;28;19914;-74
2022/03/09 04:41:49;;;;;;;;;;;22.80;99.90;;;;;;4994468;28;19916;-75
2022/03/09 04:44:16;;;;;;;;;;;22.90;99.90;;;;;;4994942;28;19918;-74
2022/03/09 04:46:43;;;;;;;;;;;22.90;99.90;;;;;;4994934;28;19972;-74
2022/03/09 04:49:09;;;;;;;;;;;22.80;99.90;;;;;;4994690;28;19910;-74
2022/03/09 04:51:36;;;;;;;;;;;22.70;99.90;;;;;;4995080;28;19910;-74
2022/03/09 04:54:03;;;;;;;;;;;22.60;99.90;;;;;;4994802;28;19917;-74
2022/03/09 04:56:29;;;;;;;;;;;22.60;99.90;;;;;;4994815;28;19910;-75
2022/03/09 04:58:56;;;;;;;;;;;22.50;99.90;;;;;;4994083;28;19910;-74
2022/03/09 05:01:23;;;;;;;;;;;22.40;99.90;;;;;;4994550;28;19910;-73
2022/03/09 05:03:49;;;;;;;;;;;22.40;99.90;;;;;;4994284;28;20403;-73
2022/03/09 05:06:16;;;;;;;;;;;22.40;99.90;;;;;;4994564;28;19921;-74
2022/03/09 05:08:43;;;;;;;;;;;22.30;99.90;;;;;;4994563;28;19960;-74
2022/03/09 05:11:09;;;;;;;;;;;22.30;99.90;;;;;;4994330;28;20396;-74
2022/03/09 05:13:39;;;;;;;;;;;22.30;99.90;;;;;;4993280;28;20247;-74
2022/03/09 05:16:06;;;;;;;;;;;22.40;99.90;;;;;;4994321;28;19910;-74
2022/03/09 05:18:37;;;;;;;;;;;22.40;99.90;;;;;;4994420;28;19910;-74
2022/03/09 05:21:04;;;;;;;;;;;22.40;99.90;;;;;;4994199;28;20299;-75
2022/03/09 05:23:30;;;;;;;;;;;22.40;99.90;;;;;;4993334;28;20311;-74
2022/03/09 05:25:57;;;;;;;;;;;22.30;99.90;;;;;;4994098;28;19914;-74
2022/03/09 05:28:24;;;;;;;;;;;22.30;99.90;;;;;;4994276;28;19956;-74
2022/03/09 05:30:51;;;;;;;;;;;22.30;99.90;;;;;;4993899;28;20757;-74
2022/03/09 05:33:17;;;;;;;;;;;22.30;99.90;;;;;;4994023;28;20350;-74
2022/03/09 05:35:44;;;;;;;;;;;22.30;99.90;;;;;;4976247;28;19935;-74
2022/03/09 05:38:11;;;;;;;;;;;22.30;99.90;;;;;;4994078;28;19914;-74
2022/03/09 05:40:37;;;;;;;;;;;22.30;99.90;;;;;;4993913;28;19910;-74
2022/03/09 05:43:04;;;;;;;;;;;22.30;99.90;;;;;;4993755;28;19922;-74
2022/03/09 05:45:30;;;;;;;;;;;22.30;99.90;;;;;;4991845;28;19921;-74
2022/03/09 05:47:57;;;;;;;;;;;22.30;99.90;;;;;;4993685;28;19913;-74
2022/03/09 05:50:24;;;;;;;;;;;22.30;99.90;;;;;;4993342;28;19918;-73
2022/03/09 05:52:50;;;;;;;;;;;22.20;99.90;;;;;;4990820;28;20435;-73
2022/03/09 05:55:17;;;;;;;;;;;22.20;99.90;;;;;;4991706;28;19990;-73
2022/03/09 05:57:44;;;;;;;;;;;22.20;99.90;;;;;;4991478;28;19975;-74
2022/03/09 06:00:10;;;;;;;;;;;22.20;99.90;;;;;;4991587;28;20338;-74
2022/03/09 06:02:37;;;;;;;;;;;22.30;99.90;;;;;;4991481;28;20336;-74
2022/03/09 06:05:04;;;;;;;;;;;22.30;99.90;;;;;;4991366;28;19929;-74
2022/03/09 06:07:32;;;;;;;;;;;22.30;99.90;;;;;;4991527;28;20328;-75
2022/03/09 06:09:58;;;;;;;;;;;22.30;99.90;;;;;;4990163;28;19952;-73
2022/03/09 06:12:25;;;;;;;;;;;22.30;99.90;;;;;;4991213;28;19945;-72
2022/03/09 06:14:52;;;;;;;;;;;22.20;99.90;;;;;;4991337;28;19992;-73
2022/03/09 06:17:18;;;;;;;;;;;22.20;99.90;;;;;;4990953;28;19932;-74
2022/03/09 06:19:45;;;;;;;;;;;22.20;99.90;;;;;;4991236;28;19918;-74
2022/03/09 06:22:12;;;;;;;;;;;22.20;99.90;;;;;;4991264;28;19913;-74
2022/03/09 06:24:38;;;;;;;;;;;22.10;99.90;;;;;;4991248;28;19910;-74
2022/03/09 06:27:05;;;;;;;;;;;22.10;99.90;;;;;;4991075;28;20353;-74
2022/03/09 06:29:32;;;;;;;;;;;22.10;99.90;;;;;;4991201;28;19969;-74
2022/03/09 06:32:00;;;;;;;;;;;22.00;99.90;;;;;;4990701;28;19917;-74
2022/03/09 06:34:27;;;;;;;;;;;22.00;99.90;;;;;;4990996;28;20356;-74
2022/03/09 06:36:54;;;;;;;;;;;22.00;99.90;;;;;;4991267;28;19914;-74
2022/03/09 06:39:21;;;;;;;;;;;22.00;99.90;;;;;;4990828;28;20658;-73
2022/03/09 06:41:47;;;;;;;;;;;22.00;99.90;;;;;;4990597;28;19910;-74
2022/03/09 06:44:14;;;;;;;;;;;22.00;99.90;;;;;;4990776;28;20008;-74
2022/03/09 06:46:41;;;;;;;;;;;22.00;99.90;;;;;;4991014;28;19917;-73
2022/03/09 06:49:08;;;;;;;;;;;22.00;99.90;;;;;;4990781;28;19910;-74
2022/03/09 06:51:35;;;;;;;;;;;22.00;99.90;;;;;;4990752;28;19918;-74
2022/03/09 06:54:01;;;;;;;;;;;21.90;99.90;;;;;;4990515;28;20271;-73
2022/03/09 06:56:28;;;;;;;;;;;21.80;99.90;;;;;;4990429;28;20395;-73
2022/03/09 06:58:54;;;;;;;;;;;21.80;99.90;;;;;;4990849;28;20033;-73
2022/03/09 07:01:21;;;;;;;;;;;21.80;99.90;;;;;;4990710;28;20617;-73
2022/03/09 07:03:48;;;;;;;;;;;21.70;99.90;;;;;;4990647;28;19997;-74
2022/03/09 07:06:14;;;;;;;;;;;21.70;99.90;;;;;;4990772;28;19935;-74
2022/03/09 07:08:41;;;;;;;;;;;21.60;99.90;;;;;;4990708;28;20420;-74
2022/03/09 07:11:07;;;;;;;;;;;21.60;99.90;;;;;;4990245;28;20392;-74
2022/03/09 07:13:34;;;;;;;;;;;21.50;99.90;;;;;;4990667;28;19969;-74
2022/03/09 07:16:01;;;;;;;;;;;21.50;99.90;;;;;;4990629;28;19921;-74
2022/03/09 07:18:27;;;;;;;;;;;21.50;99.90;;;;;;4990703;28;19910;-75
2022/03/09 07:20:54;;;;;;;;;;;21.50;99.90;;;;;;4991622;28;19913;-74
2022/03/09 07:23:21;;;;;;;;;;;21.50;99.90;;;;;;4993908;28;19920;-74
2022/03/09 07:25:47;;;;;;;;;;;21.50;99.90;;;;;;4994391;28;20423;-74
2022/03/09 07:28:15;;;;;;;;;;;21.50;99.90;;;;;;4976938;28;19909;-74
2022/03/09 07:30:41;;;;;;;;;;;21.50;99.90;;;;;;4994044;28;20285;-75
2022/03/09 07:33:08;;;;;;;;;;;21.50;99.90;;;;;;4994407;28;19917;-74
2022/03/09 07:35:35;;;;;;;;;;;21.40;99.90;;;;;;4993570;28;19914;-74
2022/03/09 07:38:02;;;;;;;;;;;21.30;99.90;;;;;;4993828;28;19917;-74
2022/03/09 07:40:28;;;;;;;;;;;21.20;99.90;;;;;;4994071;28;19920;-75
2022/03/09 07:42:55;;;;;;;;;;;21.10;99.90;;;;;;4993769;28;19921;-74
2022/03/09 07:45:22;;;;;;;;;;;21.10;99.90;;;;;;4994412;28;20300;-74
2022/03/09 07:47:48;;;;;;;;;;;21.00;99.90;;;;;;4994142;28;19917;-74
2022/03/09 07:50:15;;;;;;;;;;;21.00;99.90;;;;;;4993455;28;20320;-74
2022/03/09 07:52:42;;;;;;;;;;;21.00;99.90;;;;;;4993872;28;20302;-75
2022/03/09 07:55:09;;;;;;;;;;;20.90;99.90;;;;;;4993891;28;19910;-74
2022/03/09 07:57:35;;;;;;;;;;;20.90;99.90;;;;;;4993982;28;19941;-74
2022/03/09 08:00:03;;;;;;;;;;;20.90;99.90;;;;;;4993818;28;19914;-74
2022/03/09 08:02:30;;;;;;;;;;;20.90;99.90;;;;;;4993514;28;19925;-74
2022/03/09 08:04:56;;;;;;;;;;;20.80;99.90;;;;;;4994254;28;19910;-74
2022/03/09 08:07:23;;;;;;;;;;;20.80;99.90;;;;;;4996001;28;19996;-74
2022/03/09 08:09:49;;;;;;;;;;;20.80;99.90;;;;;;4995438;28;19917;-73
2022/03/09 08:12:16;;;;;;;;;;;20.70;99.90;;;;;;4995689;28;20368;-75
2022/03/09 08:14:43;;;;;;;;;;;20.70;99.90;;;;;;4995694;28;19909;-74
2022/03/09 08:17:09;;;;;;;;;;;20.60;99.90;;;;;;4995658;28;19909;-74
2022/03/09 08:19:36;;;;;;;;;;;20.60;99.90;;;;;;4995529;28;19910;-74
2022/03/09 08:22:03;;;;;;;;;;;20.50;99.90;;;;;;4993426;28;19910;-74
2022/03/09 08:24:30;;;;;;;;;;;20.50;99.90;;;;;;4994950;28;19910;-74
2022/03/09 08:26:56;;;;;;;;;;;20.40;99.90;;;;;;4995459;28;19910;-75
2022/03/09 08:29:23;;;;;;;;;;;20.40;99.90;;;;;;4994998;28;19924;-74
2022/03/09 08:31:49;;;;;;;;;;;20.40;99.90;;;;;;4994454;28;19922;-74
2022/03/09 08:34:16;;;;;;;;;;;20.40;99.90;;;;;;4994610;28;19909;-73
2022/03/09 08:36:43;;;;;;;;;;;20.30;99.90;;;;;;4995299;28;19909;-74
2022/03/09 08:39:09;;;;;;;;;;;20.30;99.90;;;;;;4995098;28;19958;-74
2022/03/09 08:44:39;;;;;;;;;;;20.30;99.90;;;;;;4975581;28;20004;-73
2022/03/09 08:47:06;;;;;;;;;;;20.30;99.90;;;;;;4975471;28;20292;-74
2022/03/09 08:49:33;;;;;;;;;;;20.20;99.90;;;;;;4975756;28;20004;-74
2022/03/09 08:52:00;;;;;;;;;;;20.20;99.90;;;;;;4975340;28;19914;-72
2022/03/09 08:54:27;;;;;;;;;;;20.20;99.90;;;;;;4975467;28;19914;-73
2022/03/09 08:56:53;;;;;;;;;;;20.10;99.90;;;;;;4975449;28;19917;-74
2022/03/09 08:59:21;;;;;;;;;;;20.10;99.90;;;;;;4975359;28;20033;-73
2022/03/09 09:01:48;;;;;;;;;;;20.10;99.90;;;;;;4975174;28;20013;-74
2022/03/09 09:04:16;;;;;;;;;;;20.10;99.90;;;;;;4975480;28;19910;-74
2022/03/09 09:06:43;;;;;;;;;;;20.10;99.90;;;;;;4975371;28;19910;-74
2022/03/09 09:09:10;;;;;;;;;;;20.00;99.90;;;;;;4974962;28;19910;-74
2022/03/09 09:11:38;;;;;;;;;;;20.00;99.90;;;;;;4975292;28;19914;-74
2022/03/09 09:14:04;;;;;;;;;;;20.00;99.90;;;;;;4975164;28;19910;-74
2022/03/09 09:16:31;;;;;;;;;;;19.90;99.90;;;;;;4974993;28;19949;-74
2022/03/09 09:18:57;;;;;;;;;;;19.90;99.90;;;;;;4974874;28;20269;-73
2022/03/09 09:21:24;;;;;;;;;;;19.90;99.90;;;;;;4975051;28;19910;-74
2022/03/09 09:23:51;;;;;;;;;;;19.90;99.90;;;;;;4974673;28;19997;-74
2022/03/09 09:26:20;;;;;;;;;;;19.80;99.90;;;;;;4974994;28;20008;-74
2022/03/09 09:28:47;;;;;;;;;;;19.80;99.90;;;;;;4974990;28;20041;-74
2022/03/09 09:31:14;;;;;;;;;;;19.80;99.90;;;;;;4974783;28;20003;-74
2022/03/09 09:33:40;;;;;;;;;;;19.80;99.90;;;;;;4973514;28;20381;-73
2022/03/09 09:36:07;;;;;;;;;;;19.70;99.90;;;;;;4973333;28;19965;-74
2022/03/09 09:38:34;;;;;;;;;;;19.70;99.90;;;;;;4974617;28;20383;-74
2022/03/09 09:41:01;;;;;;;;;;;19.70;99.90;;;;;;4974238;28;19917;-74
2022/03/09 09:43:28;;;;;;;;;;;19.60;99.90;;;;;;4988752;28;19921;-74
2022/03/09 09:45:56;;;;;;;;;;;19.60;99.90;;;;;;4993752;28;19910;-72
2022/03/09 09:48:23;;;;;;;;;;;19.60;99.90;;;;;;4993787;28;20271;-72
2022/03/09 09:50:52;;;;;;;;;;;19.60;99.90;;;;;;4993729;28;20347;-72
2022/03/09 09:53:19;;;;;;;;;;;19.50;99.90;;;;;;4993672;28;19910;-72
2022/03/09 09:55:45;;;;;;;;;;;19.50;99.90;;;;;;4993298;28;19960;-73
2022/03/09 09:58:12;;;;;;;;;;;19.50;99.90;;;;;;4993665;28;20356;-73
2022/03/09 10:00:39;;;;;;;;;;;19.40;99.90;;;;;;4993706;28;19909;-73
2022/03/09 10:03:06;;;;;;;;;;;19.40;99.90;;;;;;4993503;28;19917;-73
2022/03/09 10:05:32;;;;;;;;;;;19.40;99.90;;;;;;4993423;28;19913;-72
2022/03/09 10:08:07;;;;;;;;;;;19.40;99.90;;;;;;4993259;28;20000;-72
2022/03/09 10:10:35;;;;;;;;;;;19.40;99.90;;;;;;4992814;28;19918;-72
2022/03/09 10:13:18;;;;;;;;;;;19.30;99.90;;;;;;4993443;28;20292;-73
2022/03/09 10:15:47;;;;;;;;;;;19.30;99.90;;;;;;4991963;28;19921;-73
2022/03/09 10:18:15;;;;;;;;;;;19.30;99.90;;;;;;4993246;28;19914;-73
2022/03/09 10:20:42;;;;;;;;;;;19.30;99.90;;;;;;4993479;28;19932;-73
2022/03/09 10:23:09;;;;;;;;;;;19.30;99.90;;;;;;4993291;28;19910;-73
2022/03/09 10:25:38;;;;;;;;;;;19.30;99.90;;;;;;4992721;28;19910;-73
2022/03/09 10:28:08;;;;;;;;;;;19.30;99.90;;;;;;4993411;28;19964;-73
2022/03/09 10:30:37;;;;;;;;;;;19.30;99.90;;;;;;4993234;28;19917;-73
2022/03/09 10:33:08;;;;;;;;;;;19.30;99.90;;;;;;4992969;28;20249;-73
2022/03/09 10:35:35;;;;;;;;;;;19.30;99.90;;;;;;4993098;28;20378;-73
2022/03/09 10:38:02;;;;;;;;;;;19.20;99.90;;;;;;4992764;28;19980;-73
2022/03/09 10:40:30;;;;;;;;;;;19.30;99.90;;;;;;4992513;28;19933;-73
2022/03/09 10:43:11;;;;;;;;;;;19.30;99.90;;;;;;4992980;28;19950;-73
2022/03/09 10:45:54;;;;;;;;;;;19.30;99.90;;;;;;4992839;28;20000;-73
2022/03/09 10:48:20;;;;;;;;;;;19.20;99.90;;;;;;4993356;28;19909;-73
2022/03/09 10:50:51;;;;;;;;;;;19.30;99.90;;;;;;4993197;28;20391;-73
2022/03/09 10:53:18;;;;;;;;;;;19.30;99.90;;;;;;4992906;28;19922;-72
2022/03/09 10:55:45;;;;;;;;;;;19.20;99.90;;;;;;4992917;28;19953;-73
2022/03/09 10:58:17;;;;;;;;;;;19.20;99.90;;;;;;4997151;28;19914;-73
2022/03/09 11:00:53;;;;;;;;;;;19.20;99.90;;;;;;4996979;28;19909;-73
2022/03/09 11:03:23;;;;;;;;;;;19.20;99.90;;;;;;4997062;28;20384;-73
2022/03/09 11:05:54;;;;;;;;;;;19.20;99.90;;;;;;4996909;28;20367;-73
2022/03/09 11:08:22;;;;;;;;;;;19.10;99.90;;;;;;5001197;28;19956;-74
2022/03/09 11:10:49;;;;;;;;;;;19.20;99.90;;;;;;4996856;28;19925;-73
2022/03/09 11:13:17;;;;;;;;;;;19.20;99.90;;;;;;4996872;28;20272;-72
2022/03/09 11:15:47;;;;;;;;;;;19.10;99.90;;;;;;4996809;28;19910;-72
2022/03/09 11:18:14;;;;;;;;;;;19.10;99.90;;;;;;4996785;28;20372;-72
2022/03/09 11:20:41;;;;;;;;;;;19.10;99.90;;;;;;4996777;28;19914;-73
2022/03/09 11:23:08;;;;;;;;;;;19.10;99.90;;;;;;4996687;28;19914;-73
2022/03/09 11:25:35;;;;;;;;;;;19.10;99.90;;;;;;4995998;28;19914;-73
2022/03/09 11:28:03;;;;;;;;;;;19.10;99.90;;;;;;4996668;28;19909;-73
2022/03/09 11:30:31;;;;;;;;;;;19.20;99.90;;;;;;4996724;28;19925;-72
2022/03/09 11:32:58;;;;;;;;;;;19.10;99.90;;;;;;4996560;28;19909;-72
2022/03/09 11:35:32;;;;;;;;;;;19.20;99.90;;;;;;4996446;28;20068;-72
2022/03/09 11:37:59;;;;;;;;;;;19.20;99.90;;;;;;4996036;28;20364;-72
2022/03/09 11:40:26;;;;;;;;;;;19.10;99.90;;;;;;4995692;28;20376;-72
2022/03/09 11:42:53;;;;;;;;;;;19.10;99.90;;;;;;4996326;28;20048;-72
2022/03/09 11:45:23;;;;;;;;;;;19.10;99.90;;;;;;4996331;28;19910;-72
2022/03/09 11:47:58;;;;;;;;;;;19.00;99.90;;;;;;4995936;28;19910;-72
2022/03/09 11:50:26;;;;;;;;;;;19.00;99.90;;;;;;4995787;28;19918;-72
2022/03/09 11:53:03;;;;;;;;;;;19.00;99.90;;;;;;4996082;28;19933;-72
2022/03/09 11:55:31;;;;;;;;;;;18.90;99.90;;;;;;4996183;28;19909;-72
2022/03/09 11:58:02;;;;;;;;;;;18.90;99.90;;;;;;4995958;28;20379;-72
2022/03/09 12:00:29;;;;;;;;;;;18.90;99.90;;;;;;4995860;28;20270;-72
2022/03/09 12:02:56;;;;;;;;;;;18.90;99.90;;;;;;4995875;28;19957;-72
2022/03/09 12:05:31;;;;;;;;;;;18.90;99.90;;;;;;4995749;28;20279;-72
2022/03/09 12:08:05;;;;;;;;;;;18.90;99.90;;;;;;4995625;28;20352;-72
2022/03/09 12:10:42;;;;;;;;;;;18.90;99.90;;;;;;4995760;28;19976;-72
2022/03/09 12:13:11;;;;;;;;;;;18.90;99.90;;;;;;4995973;28;19910;-72
2022/03/09 12:15:56;;;;;;;;;;;18.90;99.90;;;;;;4995616;28;20005;-72
2022/03/09 12:18:36;;;;;;;;;;;18.90;99.90;;;;;;4995584;28;19918;-72
2022/03/09 12:21:03;;;;;;;;;;;18.90;99.90;;;;;;4995577;28;20288;-73
2022/03/09 12:23:29;;;;;;;;;;;18.80;99.90;;;;;;4995552;28;19910;-72
2022/03/09 12:25:58;;;;;;;;;;;18.80;99.90;;;;;;4995493;28;20001;-72
2022/03/09 12:30:57;;;;;;;;;;;18.80;99.90;;;;;;4995482;28;19922;-72
2022/03/09 12:33:28;;;;;;;;;;;18.80;99.90;;;;;;4995397;28;20261;-72
2022/03/09 12:36:05;;;;;;;;;;;18.70;99.90;;;;;;4995190;28;19910;-72
2022/03/09 12:38:39;;;;;;;;;;;18.70;99.90;;;;;;4995271;28;19913;-73
2022/03/09 12:41:05;;;;;;;;;;;18.70;99.90;;;;;;4995106;28;19935;-72
2022/03/09 12:43:51;;;;;;;;;;;18.70;99.90;;;;;;4994881;28;19997;-73
2022/03/09 12:46:18;;;;;;;;;;;18.70;99.90;;;;;;4995336;28;20276;-72
2022/03/09 12:48:45;;;;;;;;;;;18.70;99.90;;;;;;4995351;28;19921;-72
2022/03/09 12:51:11;;;;;;;;;;;18.70;99.90;;;;;;4995141;28;19948;-72
2022/03/09 12:53:38;;;;;;;;;;;18.60;99.90;;;;;;4994737;28;19910;-72
2022/03/09 12:56:15;;;;;;;;;;;18.70;99.90;;;;;;4994841;28;19910;-73
2022/03/09 12:58:42;;;;;;;;;;;18.70;99.90;;;;;;4994799;28;19913;-72
2022/03/09 13:01:09;;;;;;;;;;;18.60;99.90;;;;;;4995223;28;20013;-72
2022/03/09 13:03:37;;;;;;;;;;;18.60;99.90;;;;;;4994797;28;20365;-72
2022/03/09 13:06:07;;;;;;;;;;;18.60;99.90;;;;;;4994759;28;20008;-72
2022/03/09 13:08:35;;;;;;;;;;;18.60;99.90;;;;;;4994741;28;20360;-72
2022/03/09 13:11:04;;;;;;;;;;;18.60;99.90;;;;;;4994632;28;19944;-72
2022/03/09 13:13:32;;;;;;;;;;;18.60;99.90;;;;;;4994735;28;19945;-72
2022/03/09 13:16:03;;;;;;;;;;;18.50;99.90;;;;;;4994379;28;19910;-72
2022/03/09 13:18:33;;;;;;;;;;;18.50;99.90;;;;;;4994051;28;19929;-72
2022/03/09 13:21:01;;;;;;;;;;;18.50;99.90;;;;;;4994437;28;19910;-72
2022/03/09 13:23:32;;;;;;;;;;;18.40;99.90;;;;;;4994401;28;19916;-72
2022/03/09 13:26:11;;;;;;;;;;;18.50;99.90;;;;;;4994112;28;19910;-72
2022/03/09 13:28:38;;;;;;;;;;;18.40;99.90;;;;;;4994448;28;19945;-72
2022/03/09 13:31:05;;;;;;;;;;;18.40;99.90;;;;;;4994225;28;19972;-72
2022/03/09 13:33:32;;;;;;;;;;;18.40;99.90;;;;;;4994246;28;20368;-72
2022/03/09 13:35:58;;;;;;;;;;;18.40;99.90;;;;;;4993993;28;19956;-72
2022/03/09 13:38:26;;;;;;;;;;;18.40;99.90;;;;;;4994213;28;19914;-72
2022/03/09 13:41:01;;;;;;;;;;;18.40;99.90;;;;;;4994184;28;20012;-72
2022/03/09 13:43:28;;;;;;;;;;;18.40;99.90;;;;;;4993770;28;19922;-72
2022/03/09 13:45:55;;;;;;;;;;;18.30;99.90;;;;;;4994006;28;19997;-72
2022/03/09 13:48:25;;;;;;;;;;;18.40;99.90;;;;;;4994239;28;20546;-72
2022/03/09 13:51:00;;;;;;;;;;;18.30;99.90;;;;;;4993812;28;19925;-72
2022/03/09 13:53:33;;;;;;;;;;;18.30;99.90;;;;;;4993813;28;20328;-72
2022/03/09 13:56:00;;;;;;;;;;;18.20;99.90;;;;;;4993590;28;20245;-72
2022/03/09 13:58:28;;;;;;;;;;;18.20;99.90;;;;;;4994078;28;20369;-72
2022/03/09 14:01:11;;;;;;;;;;;18.20;99.90;;;;;;4994004;28;19910;-72
2022/03/09 14:03:42;;;;;;;;;;;18.20;99.90;;;;;;4993412;28;19965;-72
2022/03/09 14:06:16;;;;;;;;;;;18.20;99.90;;;;;;4993698;28;19964;-72
2022/03/09 14:08:43;;;;;;;;;;;18.20;99.90;;;;;;4993493;28;19909;-72
2022/03/09 14:11:14;;;;;;;;;;;18.20;99.90;;;;;;4993610;28;19922;-72
2022/03/09 14:13:59;;;;;;;;;;;18.10;99.90;;;;;;4993333;28;19910;-72
2022/03/09 14:16:27;;;;;;;;;;;18.10;99.90;;;;;;4993588;28;19937;-72
2022/03/09 14:18:54;;;;;;;;;;;18.10;99.90;;;;;;4993532;28;19918;-72
2022/03/09 14:21:21;;;;;;;;;;;18.10;99.90;;;;;;4993471;28;20005;-73
2022/03/09 14:23:48;;;;;;;;;;;18.10;99.90;;;;;;4992983;28;19996;-73
2022/03/09 14:26:15;;;;;;;;;;;18.10;99.90;;;;;;4993400;28;20249;-72
2022/03/09 14:28:42;;;;;;;;;;;18.10;99.90;;;;;;4993436;28;20372;-72